Time;durP1;ratioP1;P1;durP2;ratioP2;P2;SDS_P1;SDS_P2;PMS_P1;PMS_P2;Temp;Humidity;BMP_temperature;BMP_pressure;BME280_temperature;BME280_humidity;BME280_pressure;Samples;Min_cycle;Max_cycle;Signal;HPM_P1;HPM_P2
2021/01/29 00:01:01;;;;;;;26.80;18.27;;;21.50;99.90;;;;;;5093161;28;20044;-64
2021/01/29 00:03:29;;;;;;;18.63;16.75;;;21.40;99.90;;;;;;5093380;28;20044;-66
2021/01/29 00:06:02;;;;;;;24.50;18.88;;;21.40;99.90;;;;;;5093669;28;20020;-66
2021/01/29 00:08:30;;;;;;;17.95;16.05;;;21.30;99.90;;;;;;5093459;28;20358;-62
2021/01/29 00:10:58;;;;;;;23.88;17.38;;;21.30;99.90;;;;;;5093606;28;20110;-67
2021/01/29 00:13:26;;;;;;;20.20;16.02;;;21.40;99.90;;;;;;5093681;28;20042;-68
2021/01/29 00:15:54;;;;;;;17.63;14.57;;;21.40;99.90;;;;;;5093451;28;20079;-62
2021/01/29 00:18:23;;;;;;;19.05;15.90;;;21.40;99.90;;;;;;5092340;28;20032;-67
2021/01/29 00:20:51;;;;;;;23.40;15.13;;;21.60;99.90;;;;;;5092177;28;20029;-64
2021/01/29 00:23:19;;;;;;;23.52;16.00;;;21.60;99.90;;;;;;5093307;28;20028;-68
2021/01/29 00:25:50;;;;;;;19.15;15.25;;;21.50;99.90;;;;;;5093393;28;20093;-68
2021/01/29 00:28:18;;;;;;;21.58;15.38;;;21.50;99.90;;;;;;5093531;28;20020;-55
2021/01/29 00:30:45;;;;;;;22.35;15.45;;;21.50;99.90;;;;;;5093245;28;20028;-53
2021/01/29 00:33:15;;;;;;;23.05;14.63;;;21.40;99.90;;;;;;5093261;28;20013;-53
2021/01/29 00:35:43;;;;;;;20.88;15.50;;;21.30;99.90;;;;;;5093243;28;20074;-53
2021/01/29 00:38:10;;;;;;;19.02;14.90;;;21.20;99.90;;;;;;5093311;28;20099;-67
2021/01/29 00:40:38;;;;;;;22.40;14.90;;;21.10;99.90;;;;;;5095235;28;20036;-66
2021/01/29 00:43:07;;;;;;;23.77;15.85;;;21.20;99.90;;;;;;5096797;28;20031;-65
2021/01/29 00:45:36;;;;;;;27.80;16.30;;;21.20;99.90;;;;;;5097023;28;20039;-65
2021/01/29 00:48:05;;;;;;;21.95;16.83;;;21.20;99.90;;;;;;5096988;28;20025;-66
2021/01/29 00:50:33;;;;;;;21.58;15.80;;;21.20;99.90;;;;;;5096983;28;20369;-64
2021/01/29 00:53:00;;;;;;;23.42;18.20;;;21.30;99.90;;;;;;5096867;28;20024;-65
2021/01/29 00:55:28;;;;;;;22.75;16.40;;;21.20;99.90;;;;;;5097059;28;20050;-65
2021/01/29 00:57:56;;;;;;;20.33;16.30;;;21.10;99.90;;;;;;5096912;28;20112;-70
2021/01/29 01:00:23;;;;;;;18.33;16.67;;;21.10;99.90;;;;;;5095366;28;20020;-69
2021/01/29 01:02:51;;;;;;;19.45;17.33;;;21.10;99.90;;;;;;5096914;28;20024;-55
2021/01/29 01:05:20;;;;;;;19.77;15.00;;;21.10;99.90;;;;;;5096771;28;20024;-54
2021/01/29 01:07:48;;;;;;;19.75;17.13;;;21.10;99.90;;;;;;5095352;28;20028;-61
2021/01/29 01:10:16;;;;;;;19.88;16.50;;;21.10;99.90;;;;;;5096797;28;20024;-74
2021/01/29 01:12:43;;;;;;;20.17;15.55;;;21.30;99.90;;;;;;5096802;28;20448;-58
2021/01/29 01:15:24;;;;;;;17.20;15.45;;;21.30;99.90;;;;;;5096604;28;20023;-58
2021/01/29 01:17:54;;;;;;;17.63;15.75;;;21.30;99.90;;;;;;5096646;28;20034;-58
2021/01/29 01:20:30;;;;;;;20.33;16.65;;;21.40;99.90;;;;;;5096371;28;20024;-58
2021/01/29 01:22:58;;;;;;;20.83;16.27;;;21.50;99.90;;;;;;5096203;28;20384;-58
2021/01/29 01:25:25;;;;;;;18.42;15.55;;;21.70;99.90;;;;;;5096316;28;20091;-58
2021/01/29 01:27:55;;;;;;;20.42;16.27;;;21.90;99.90;;;;;;5096127;28;20020;-58
2021/01/29 01:30:28;;;;;;;19.15;14.25;;;21.90;99.90;;;;;;5096271;28;20020;-58
2021/01/29 01:32:55;;;;;;;25.90;14.95;;;21.90;99.90;;;;;;5096523;28;20020;-58
2021/01/29 01:35:23;;;;;;;19.15;14.05;;;21.90;99.90;;;;;;5096435;28;20027;-58
2021/01/29 01:37:51;;;;;;;26.02;14.45;;;22.00;99.90;;;;;;5096089;28;20077;-58
2021/01/29 01:40:22;;;;;;;22.25;13.55;;;22.10;99.90;;;;;;5096094;28;20118;-59
2021/01/29 01:42:50;;;;;;;22.77;15.32;;;22.20;99.90;;;;;;5096041;28;20039;-58
2021/01/29 01:46:04;;;;;;;25.80;14.27;;;22.20;99.90;;;;;;5095505;28;20035;-59
2021/01/29 01:48:46;;;;;;;26.02;15.40;;;22.10;99.90;;;;;;5095467;28;20034;-58
2021/01/29 01:51:27;;;;;;;26.27;15.20;;;21.90;99.90;;;;;;5094934;28;20435;-57
2021/01/29 01:53:58;;;;;;;23.02;14.40;;;21.70;99.90;;;;;;5095302;28;20024;-58
2021/01/29 01:56:46;;;;;;;29.52;15.50;;;21.60;99.90;;;;;;5095407;28;20093;-58
2021/01/29 01:59:20;;;;;;;27.08;15.63;;;21.50;99.90;;;;;;5095168;28;20020;-58
2021/01/29 02:01:49;;;;;;;21.60;14.70;;;21.50;99.90;;;;;;5095104;28;20082;-58
2021/01/29 02:04:18;;;;;;;24.40;16.20;;;21.60;99.90;;;;;;5095141;28;20031;-59
2021/01/29 02:07:05;;;;;;;27.45;18.30;;;21.60;99.90;;;;;;5095173;28;20480;-58
2021/01/29 02:09:37;;;;;;;24.70;16.52;;;21.50;99.90;;;;;;5095063;28;20032;-58
2021/01/29 02:12:05;;;;;;;24.88;16.33;;;21.50;99.90;;;;;;5094958;28;20494;-62
2021/01/29 02:14:32;;;;;;;25.88;17.80;;;21.60;99.90;;;;;;5094825;28;20417;-67
2021/01/29 02:17:19;;;;;;;28.77;18.35;;;21.60;99.90;;;;;;5095102;28;20020;-67
2021/01/29 02:20:08;;;;;;;28.63;19.20;;;21.50;99.90;;;;;;5095107;28;20028;-67
2021/01/29 02:23:00;;;;;;;23.90;16.90;;;21.60;99.90;;;;;;5093406;28;20114;-64
2021/01/29 02:26:04;;;;;;;24.33;17.42;;;21.70;99.90;;;;;;5093617;28;20016;-63
2021/01/29 02:28:58;;;;;;;28.58;18.02;;;21.60;99.90;;;;;;5093440;28;20483;-57
2021/01/29 02:32:32;;;;;;;35.97;19.45;;;21.70;99.90;;;;;;5094675;28;20020;-60
2021/01/29 02:35:08;;;;;;;31.88;16.98;;;21.70;99.90;;;;;;4994996;28;20087;-56
2021/01/29 02:38:12;;;;;;;27.55;17.52;;;21.70;99.90;;;;;;5083342;28;20119;-56
2021/01/29 02:40:57;;;;;;;25.08;18.80;;;21.60;99.90;;;;;;5094165;28;20124;-57
2021/01/29 02:43:49;;;;;;;22.90;18.20;;;21.60;99.90;;;;;;5094317;28;20506;-57
2021/01/29 02:46:27;;;;;;;21.90;18.63;;;21.60;99.90;;;;;;5094405;28;20044;-58
2021/01/29 02:49:15;;;;;;;21.60;19.38;;;21.60;99.90;;;;;;5094176;28;20074;-56
2021/01/29 02:52:01;;;;;;;22.42;20.30;;;21.70;99.90;;;;;;5094298;28;20020;-63
2021/01/29 02:54:57;;;;;;;22.40;20.27;;;21.80;99.90;;;;;;5094209;28;20058;-70
2021/01/29 02:57:50;;;;;;;23.45;21.25;;;21.80;99.90;;;;;;5094299;28;20051;-69
2021/01/29 03:00:32;;;;;;;22.52;20.75;;;21.70;99.90;;;;;;5094654;28;20353;-64
2021/01/29 03:03:25;;;;;;;24.98;22.38;;;21.50;99.90;;;;;;5093698;28;20027;-66
2021/01/29 03:05:56;;;;;;;25.83;23.40;;;21.50;99.90;;;;;;5094832;28;20024;-65
2021/01/29 03:08:51;;;;;;;27.30;23.55;;;21.40;99.90;;;;;;5094351;28;20027;-66
2021/01/29 03:11:36;;;;;;;25.13;22.52;;;21.50;99.90;;;;;;5092740;28;20028;-62
2021/01/29 03:14:18;;;;;;;26.00;23.35;;;21.50;99.90;;;;;;5094361;28;20050;-55
2021/01/29 03:16:56;;;;;;;24.55;22.02;;;21.50;99.90;;;;;;5094296;28;20048;-57
2021/01/29 03:19:35;;;;;;;22.92;20.67;;;21.50;99.90;;;;;;5094050;28;20036;-55
2021/01/29 03:22:13;;;;;;;26.02;23.30;;;21.60;99.90;;;;;;5094267;28;20070;-56
2021/01/29 03:25:04;;;;;;;23.00;21.02;;;21.60;99.90;;;;;;5094304;28;20028;-56
2021/01/29 03:27:41;;;;;;;23.63;21.60;;;21.50;99.90;;;;;;5093796;28;20028;-57
2021/01/29 03:30:14;;;;;;;23.80;21.88;;;21.40;99.90;;;;;;5093619;28;20016;-71
2021/01/29 03:32:45;;;;;;;24.52;22.20;;;21.40;99.90;;;;;;5093620;28;20114;-70
2021/01/29 03:35:27;;;;;;;25.92;23.52;;;21.40;99.90;;;;;;5092270;28;20115;-57
2021/01/29 03:38:01;;;;;;;26.52;24.02;;;21.50;99.90;;;;;;5093790;28;20388;-56
2021/01/29 03:40:28;;;;;;;26.75;24.67;;;21.50;99.90;;;;;;5093313;28;20040;-54
2021/01/29 03:43:04;;;;;;;27.02;24.88;;;21.40;99.90;;;;;;5093478;28;20124;-58
2021/01/29 03:45:48;;;;;;;25.33;23.27;;;21.40;99.90;;;;;;5093299;28;20389;-57
2021/01/29 03:48:32;;;;;;;27.40;25.35;;;21.30;99.90;;;;;;5093346;28;20024;-56
2021/01/29 03:51:25;;;;;;;27.80;25.90;;;21.30;99.90;;;;;;5093650;28;20450;-57
2021/01/29 03:54:21;;;;;;;31.83;29.67;;;21.30;99.90;;;;;;5093450;28;20035;-57
2021/01/29 03:56:54;;;;;;;32.00;29.58;;;21.40;99.90;;;;;;5092014;28;20024;-57
2021/01/29 03:59:49;;;;;;;32.00;29.10;;;21.30;99.90;;;;;;5093321;28;20027;-56
2021/01/29 04:02:27;;;;;;;29.30;26.77;;;21.20;99.90;;;;;;5093140;28;20043;-57
2021/01/29 04:05:28;;;;;;;31.75;29.13;;;21.20;99.90;;;;;;5093143;28;20377;-54
2021/01/29 04:08:09;;;;;;;40.17;37.00;;;21.20;99.90;;;;;;5079778;28;20070;-62
2021/01/29 04:10:36;;;;;;;29.98;27.13;;;21.30;99.90;;;;;;5093251;28;20016;-56
2021/01/29 04:13:19;;;;;;;27.55;24.92;;;21.30;99.90;;;;;;5093003;28;20388;-58
2021/01/29 04:15:51;;;;;;;24.90;22.10;;;21.30;99.90;;;;;;5097444;28;20028;-58
2021/01/29 04:18:37;;;;;;;23.67;21.50;;;21.30;99.90;;;;;;5097840;28;20076;-56
2021/01/29 04:21:22;;;;;;;23.80;21.00;;;21.30;99.90;;;;;;5097097;28;20032;-58
2021/01/29 04:24:01;;;;;;;26.23;22.20;;;21.30;99.90;;;;;;5097110;28;20016;-57
2021/01/29 04:26:40;;;;;;;25.75;22.77;;;21.30;99.90;;;;;;5097040;28;20465;-56
2021/01/29 04:29:22;;;;;;;28.00;21.90;;;21.30;99.90;;;;;;5097024;28;20012;-56
2021/01/29 04:31:55;;;;;;;29.05;21.70;;;21.40;99.90;;;;;;5097251;28;20020;-57
2021/01/29 04:34:27;;;;;;;24.02;21.20;;;21.30;99.90;;;;;;5097050;28;20020;-55
2021/01/29 04:36:59;;;;;;;27.77;20.48;;;21.30;99.90;;;;;;5096937;28;20028;-58
2021/01/29 04:39:54;;;;;;;24.40;21.45;;;21.30;99.90;;;;;;5096688;28;20385;-58
2021/01/29 04:42:42;;;;;;;22.20;20.02;;;21.30;99.90;;;;;;5094985;28;20454;-58
2021/01/29 04:45:21;;;;;;;24.00;21.67;;;21.30;99.90;;;;;;5096832;28;20107;-57
2021/01/29 04:48:09;;;;;;;27.83;25.17;;;21.30;99.90;;;;;;5096519;28;20052;-56
2021/01/29 04:50:52;;;;;;;24.75;20.98;;;21.30;99.90;;;;;;5096673;28;20036;-58
2021/01/29 04:54:01;;;;;;;26.13;23.92;;;21.40;99.90;;;;;;5096478;28;20031;-58
2021/01/29 04:56:40;;;;;;;22.33;20.27;;;21.40;99.90;;;;;;5096482;28;20384;-61
2021/01/29 04:59:12;;;;;;;22.40;20.27;;;21.30;99.90;;;;;;5096513;28;20020;-64
2021/01/29 05:01:54;;;;;;;22.77;20.95;;;21.20;99.90;;;;;;5096325;28;20480;-62
2021/01/29 05:04:51;;;;;;;22.77;20.80;;;21.20;99.90;;;;;;5096444;28;20020;-59
2021/01/29 05:07:27;;;;;;;24.98;22.25;;;21.20;99.90;;;;;;5090101;28;20071;-55
2021/01/29 05:10:16;;;;;;;23.65;21.65;;;21.20;99.90;;;;;;5094974;28;20016;-56
2021/01/29 05:13:04;;;;;;;32.67;30.23;;;21.20;99.90;;;;;;5096201;28;20103;-57
2021/01/29 05:15:53;;;;;;;30.13;27.80;;;21.30;99.90;;;;;;5096121;28;20081;-56
2021/01/29 05:19:01;;;;;;;26.60;24.08;;;21.20;99.90;;;;;;5096120;28;20153;-60
2021/01/29 05:21:53;;;;;;;26.20;23.70;;;21.10;99.90;;;;;;5075405;28;20040;-59
2021/01/29 05:24:23;;;;;;;30.83;28.02;;;21.10;99.90;;;;;;5095978;28;20031;-59
2021/01/29 05:27:12;;;;;;;29.08;26.75;;;21.00;99.90;;;;;;5095681;28;20028;-58
2021/01/29 05:30:09;;;;;;;29.63;27.15;;;21.00;99.90;;;;;;5096058;28;20024;-58
2021/01/29 05:32:54;;;;;;;29.33;26.40;;;21.00;99.90;;;;;;5095766;28;20056;-55
2021/01/29 05:35:44;;;;;;;30.08;26.95;;;20.90;99.90;;;;;;5095776;28;20024;-59
2021/01/29 05:38:52;;;;;;;31.48;28.63;;;21.00;99.90;;;;;;5095809;28;20425;-53
2021/01/29 05:41:34;;;;;;;26.50;23.67;;;21.00;99.90;;;;;;5074787;28;20123;-57
2021/01/29 05:44:23;;;;;;;23.02;20.65;;;21.00;99.90;;;;;;5095683;28;20024;-57
2021/01/29 05:47:27;;;;;;;24.60;21.48;;;20.90;99.90;;;;;;5095578;28;20020;-57
2021/01/29 05:50:24;;;;;;;26.52;23.98;;;21.00;99.90;;;;;;5095416;28;20516;-58
2021/01/29 05:53:27;;;;;;;22.85;20.52;;;21.00;99.90;;;;;;5095532;28;20098;-57
2021/01/29 05:56:16;;;;;;;24.40;21.70;;;20.90;99.90;;;;;;5095562;28;20052;-59
2021/01/29 05:59:10;;;;;;;23.85;21.95;;;20.90;99.90;;;;;;5095243;28;20416;-59
2021/01/29 06:02:00;;;;;;;24.85;22.80;;;20.90;99.90;;;;;;5095475;28;20024;-58
2021/01/29 06:04:50;;;;;;;25.65;23.38;;;20.90;99.90;;;;;;5095353;28;20467;-57
2021/01/29 06:07:54;;;;;;;25.92;23.75;;;20.90;99.90;;;;;;5095217;28;20017;-54
2021/01/29 06:10:44;;;;;;;30.23;28.13;;;20.90;99.90;;;;;;5094947;28;20048;-57
2021/01/29 06:14:01;;;;;;;31.23;28.15;;;20.80;99.90;;;;;;5095356;28;20082;-57
2021/01/29 06:16:47;;;;;;;28.23;25.83;;;20.80;99.90;;;;;;5032990;28;20079;-57
2021/01/29 06:19:47;;;;;;;32.20;29.17;;;20.70;99.90;;;;;;5033600;28;20080;-56
2021/01/29 06:22:43;;;;;;;29.52;26.65;;;20.70;99.90;;;;;;5084525;28;20044;-58
2021/01/29 06:25:32;;;;;;;33.20;29.88;;;20.60;99.90;;;;;;5094988;28;20024;-58
2021/01/29 06:28:11;;;;;;;27.85;25.10;;;20.60;99.90;;;;;;5095193;28;20020;-57
2021/01/29 06:30:50;;;;;;;28.73;25.90;;;20.60;99.90;;;;;;5095013;28;20428;-59
2021/01/29 06:33:36;;;;;;;29.35;26.50;;;20.60;99.90;;;;;;5094658;28;20082;-59
2021/01/29 06:36:05;;;;;;;42.03;37.95;;;20.50;99.90;;;;;;5094632;28;20020;-58
2021/01/29 06:38:53;;;;;;;31.77;28.23;;;20.50;99.90;;;;;;5094820;28;20020;-59
2021/01/29 06:41:48;;;;;;;31.90;28.73;;;20.50;99.90;;;;;;5094834;28;20131;-58
2021/01/29 06:44:24;;;;;;;32.35;27.00;;;20.50;99.90;;;;;;5095089;28;20016;-56
2021/01/29 06:47:09;;;;;;;29.15;26.17;;;20.50;99.90;;;;;;5095524;28;20082;-58
2021/01/29 06:50:07;;;;;;;31.98;28.52;;;20.50;99.90;;;;;;5094808;28;20085;-58
2021/01/29 06:53:03;;;;;;;30.98;26.17;;;20.50;99.90;;;;;;5094971;28;20028;-58
2021/01/29 06:55:48;;;;;;;33.30;29.02;;;20.50;99.90;;;;;;5094912;28;20036;-58
2021/01/29 06:58:33;;;;;;;34.88;27.80;;;20.60;99.90;;;;;;5094690;28;20020;-63
2021/01/29 07:01:24;;;;;;;30.63;27.30;;;20.60;99.90;;;;;;5094839;28;20019;-58
2021/01/29 07:03:51;;;;;;;30.10;26.95;;;20.50;99.90;;;;;;5094661;28;20024;-58
2021/01/29 07:06:26;;;;;;;34.58;29.25;;;20.50;99.90;;;;;;5094558;28;20051;-58
2021/01/29 07:09:18;;;;;;;31.98;28.20;;;20.50;99.90;;;;;;5094549;28;20024;-58
2021/01/29 07:12:23;;;;;;;29.60;26.77;;;20.50;99.90;;;;;;5094356;28;20472;-58
2021/01/29 07:15:27;;;;;;;30.45;27.38;;;20.50;99.90;;;;;;5094430;28;20182;-58
2021/01/29 07:18:20;;;;;;;31.45;28.48;;;20.50;99.90;;;;;;5094592;28;20020;-54
2021/01/29 07:20:47;;;;;;;36.58;33.40;;;20.50;99.90;;;;;;5094448;28;20028;-53
2021/01/29 07:23:23;;;;;;;31.10;28.42;;;20.50;99.90;;;;;;5094097;28;20050;-59
2021/01/29 07:26:10;;;;;;;35.20;27.67;;;20.50;99.90;;;;;;5093949;28;20070;-52
2021/01/29 07:28:43;;;;;;;29.63;26.83;;;20.50;99.90;;;;;;5094019;28;20358;-54
2021/01/29 07:31:37;;;;;;;30.20;27.13;;;20.60;99.90;;;;;;5094110;28;20085;-50
2021/01/29 07:34:15;;;;;;;30.60;27.90;;;20.50;99.90;;;;;;5094182;28;20356;-51
2021/01/29 07:36:54;;;;;;;31.05;27.48;;;20.50;99.90;;;;;;5094140;28;20013;-49
2021/01/29 07:39:57;;;;;;;31.00;27.98;;;20.50;99.90;;;;;;5094132;28;20475;-54
2021/01/29 07:42:45;;;;;;;31.73;27.70;;;20.50;99.90;;;;;;5093796;28;20043;-54
2021/01/29 07:45:47;;;;;;;35.17;26.65;;;20.50;99.90;;;;;;5093964;28;20024;-51
2021/01/29 07:48:51;;;;;;;30.52;27.38;;;20.50;99.90;;;;;;5093550;28;20039;-51
2021/01/29 07:51:48;;;;;;;35.83;27.70;;;20.50;99.90;;;;;;5093766;28;20032;-51
2021/01/29 07:54:48;;;;;;;32.95;29.42;;;20.50;99.90;;;;;;5093954;28;20016;-53
2021/01/29 07:57:43;;;;;;;30.23;27.10;;;20.50;99.90;;;;;;5093574;28;20016;-47
2021/01/29 08:00:40;;;;;;;30.13;26.98;;;20.50;99.90;;;;;;5093501;28;20092;-46
2021/01/29 08:03:26;;;;;;;30.52;27.42;;;20.50;99.90;;;;;;5093293;28;20403;-50
2021/01/29 08:06:05;;;;;;;28.70;26.00;;;20.50;99.90;;;;;;5093533;28;20028;-52
2021/01/29 08:08:57;;;;;;;29.13;26.63;;;20.50;99.90;;;;;;5093727;28;20024;-51
2021/01/29 08:11:27;;;;;;;28.27;25.88;;;20.40;99.90;;;;;;5093262;28;20361;-53
2021/01/29 08:14:26;;;;;;;29.10;26.35;;;20.40;99.90;;;;;;5093010;28;20119;-55
2021/01/29 08:17:28;;;;;;;30.10;27.25;;;20.40;99.90;;;;;;5093658;28;20024;-56
2021/01/29 08:20:32;;;;;;;29.10;26.27;;;20.30;99.90;;;;;;5093512;28;20030;-53
2021/01/29 08:23:27;;;;;;;30.15;27.27;;;20.30;99.90;;;;;;5093273;28;20024;-55
2021/01/29 08:26:31;;;;;;;31.90;28.70;;;20.30;99.90;;;;;;5093509;28;20345;-55
2021/01/29 08:29:33;;;;;;;33.45;29.73;;;20.40;99.90;;;;;;5093578;28;20341;-58
2021/01/29 08:32:06;;;;;;;35.08;30.88;;;20.30;99.90;;;;;;5077762;28;20082;-55
2021/01/29 08:34:57;;;;;;;32.05;28.75;;;20.40;99.90;;;;;;5093402;28;20025;-53
2021/01/29 08:38:09;;;;;;;38.63;31.00;;;20.40;99.90;;;;;;5093383;28;20028;-54
2021/01/29 08:40:50;;;;;;;35.00;29.77;;;20.40;99.90;;;;;;5087112;28;20442;-56
2021/01/29 08:43:46;;;;;;;35.13;29.67;;;20.40;99.90;;;;;;5093207;28;20033;-56
2021/01/29 08:46:32;;;;;;;40.03;29.58;;;20.40;99.90;;;;;;5092232;28;20484;-55
2021/01/29 08:49:22;;;;;;;37.25;28.73;;;20.40;99.90;;;;;;5093232;28;20088;-56
2021/01/29 08:52:09;;;;;;;38.72;30.38;;;20.40;99.90;;;;;;5085257;28;20040;-52
2021/01/29 08:54:51;;;;;;;40.13;29.90;;;20.50;99.90;;;;;;5093394;28;20039;-51
2021/01/29 08:57:53;;;;;;;42.15;28.23;;;20.50;99.90;;;;;;5092772;28;20103;-52
2021/01/29 09:00:35;;;;;;;44.25;29.42;;;20.40;99.90;;;;;;5092844;28;20112;-54
2021/01/29 09:03:10;;;;;;;44.53;29.88;;;20.50;99.90;;;;;;5096294;28;20024;-54
2021/01/29 09:05:42;;;;;;;46.25;29.88;;;20.50;99.90;;;;;;5096416;28;20069;-53
2021/01/29 09:08:15;;;;;;;49.75;30.83;;;20.50;99.90;;;;;;5096403;28;20012;-52
2021/01/29 09:10:58;;;;;;;41.88;30.92;;;20.50;99.90;;;;;;5096532;28;20055;-53
2021/01/29 09:13:27;;;;;;;45.53;31.50;;;20.50;99.90;;;;;;5096354;28;20020;-54
2021/01/29 09:16:00;;;;;;;37.72;32.42;;;20.50;99.90;;;;;;5096193;28;20377;-53
2021/01/29 09:18:53;;;;;;;37.95;29.35;;;20.50;99.90;;;;;;5096422;28;20528;-55
2021/01/29 09:21:28;;;;;;;33.17;29.77;;;20.50;99.90;;;;;;5095944;28;20059;-54
2021/01/29 09:24:06;;;;;;;36.95;33.25;;;20.50;99.90;;;;;;5095890;28;20028;-55
2021/01/29 09:27:05;;;;;;;34.08;30.40;;;20.50;99.90;;;;;;5095960;28;20016;-54
2021/01/29 09:29:38;;;;;;;32.92;29.35;;;20.50;99.90;;;;;;5071283;28;20040;-56
2021/01/29 09:32:13;;;;;;;35.13;31.23;;;20.60;99.90;;;;;;5095991;28;20024;-56
2021/01/29 09:34:47;;;;;;;33.92;30.55;;;20.50;99.90;;;;;;5095908;28;20059;-56
2021/01/29 09:37:19;;;;;;;35.95;28.90;;;20.50;99.90;;;;;;5095632;28;20031;-53
2021/01/29 09:39:56;;;;;;;36.38;29.40;;;20.50;99.90;;;;;;5095452;28;20098;-55
2021/01/29 09:42:40;;;;;;;38.63;28.75;;;20.60;99.90;;;;;;5095522;28;20036;-56
2021/01/29 09:45:20;;;;;;;34.60;29.88;;;20.60;99.90;;;;;;5094248;28;20020;-53
2021/01/29 09:47:57;;;;;;;38.80;30.77;;;20.50;99.90;;;;;;5095521;28;20020;-54
2021/01/29 09:50:26;;;;;;;39.35;30.25;;;20.60;99.90;;;;;;5095490;28;20419;-55
2021/01/29 09:53:14;;;;;;;36.83;32.90;;;20.60;99.90;;;;;;5095346;28;20073;-54
2021/01/29 09:56:03;;;;;;;41.65;34.58;;;20.60;99.90;;;;;;5095494;28;20054;-55
2021/01/29 09:58:40;;;;;;;36.50;31.40;;;20.60;99.90;;;;;;5095375;28;20031;-54
2021/01/29 10:01:15;;;;;;;43.22;32.42;;;20.60;99.90;;;;;;5095206;28;20024;-54
2021/01/29 10:04:06;;;;;;;37.28;32.10;;;20.60;99.90;;;;;;5095346;28;20031;-55
2021/01/29 10:06:34;;;;;;;;;;;20.60;99.90;;;;;;5095666;28;20024;-53
2021/01/29 10:09:10;;;;;;;38.63;33.90;;;20.60;99.90;;;;;;5095182;28;20394;-55
2021/01/29 10:11:47;;;;;;;35.10;31.35;;;20.60;99.90;;;;;;5094813;28;20366;-55
2021/01/29 10:14:29;;;;;;;36.45;32.85;;;20.60;99.90;;;;;;5094909;28;20028;-53
2021/01/29 10:17:00;;;;;;;40.45;34.40;;;20.60;99.90;;;;;;5094910;28;20032;-55
2021/01/29 10:19:57;;;;;;;34.70;31.13;;;20.70;99.90;;;;;;5094989;28;20472;-56
2021/01/29 10:23:04;;;;;;;35.40;31.75;;;20.70;99.90;;;;;;5093804;28;20067;-54
2021/01/29 10:26:07;;;;;;;33.20;29.73;;;20.70;99.90;;;;;;5094663;28;20431;-57
2021/01/29 10:28:51;;;;;;;34.55;31.35;;;20.70;99.90;;;;;;5094783;28;20012;-55
2021/01/29 10:31:22;;;;;;;33.85;30.88;;;20.60;99.90;;;;;;5094667;28;20095;-56
2021/01/29 10:34:02;;;;;;;33.45;30.60;;;20.70;99.90;;;;;;5094756;28;20016;-53
2021/01/29 10:36:33;;;;;;;34.15;31.20;;;20.70;99.90;;;;;;5095094;28;20457;-55
2021/01/29 10:39:18;;;;;;;33.55;30.75;;;20.70;99.90;;;;;;5095029;28;20024;-55
2021/01/29 10:41:59;;;;;;;33.50;30.85;;;20.70;99.90;;;;;;5094709;28;20044;-54
2021/01/29 10:44:32;;;;;;;34.50;31.25;;;20.70;99.90;;;;;;5094790;28;20047;-52
2021/01/29 10:47:07;;;;;;;33.10;30.00;;;20.70;99.90;;;;;;5094767;28;20103;-55
2021/01/29 10:49:49;;;;;;;38.08;35.03;;;20.70;99.90;;;;;;5094552;28;20024;-53
2021/01/29 10:52:59;;;;;;;31.38;28.88;;;20.70;99.90;;;;;;5094790;28;20532;-54
2021/01/29 10:55:52;;;;;;;34.35;31.33;;;20.70;99.90;;;;;;5094637;28;20023;-55
2021/01/29 10:59:09;;;;;;;35.97;33.15;;;20.70;99.90;;;;;;5092967;28;20040;-58
2021/01/29 11:01:48;;;;;;;36.00;33.13;;;20.60;99.90;;;;;;5093339;28;20481;-52
2021/01/29 11:04:30;;;;;;;36.70;33.85;;;20.60;99.90;;;;;;5094553;28;20081;-52
2021/01/29 11:07:06;;;;;;;36.40;33.72;;;20.70;99.90;;;;;;5094342;28;20046;-57
2021/01/29 11:09:37;;;;;;;37.45;34.33;;;20.70;99.90;;;;;;5094452;28;20019;-60
2021/01/29 11:12:17;;;;;;;35.58;32.03;;;20.80;99.90;;;;;;5094322;28;20031;-48
2021/01/29 11:14:50;;;;;;;;;;;20.70;99.90;;;;;;5094695;28;20111;-54
2021/01/29 11:17:27;;;;;;;39.75;36.28;;;20.80;99.90;;;;;;5094531;28;19910;-55
2021/01/29 11:19:57;;;;;;;46.35;42.60;;;20.80;99.90;;;;;;5094584;28;20024;-53
2021/01/29 11:22:45;;;;;;;42.83;39.15;;;20.80;99.90;;;;;;5094281;28;20016;-54
2021/01/29 11:25:33;;;;;;;41.63;38.25;;;20.90;99.90;;;;;;5092488;28;20111;-51
2021/01/29 11:28:29;;;;;;;39.92;36.45;;;20.90;99.90;;;;;;5094150;28;20499;-54
2021/01/29 11:31:04;;;;;;;37.63;34.05;;;20.80;99.90;;;;;;5094367;28;20103;-54
2021/01/29 11:33:36;;;;;;;39.58;35.85;;;20.90;99.90;;;;;;5093724;28;20032;-53
2021/01/29 11:36:33;;;;;;;85.97;79.65;;;20.90;99.90;;;;;;5093974;28;20418;-55
2021/01/29 11:39:15;;;;;;;85.88;78.82;;;20.90;99.90;;;;;;5090871;28;20032;-54
2021/01/29 11:41:50;;;;;;;87.53;80.75;;;20.80;99.90;;;;;;5093568;28;20042;-56
2021/01/29 11:44:46;;;;;;;89.40;82.35;;;20.80;99.90;;;;;;5093449;28;20435;-53
2021/01/29 11:47:14;;;;;;;85.07;78.85;;;20.90;99.90;;;;;;5093543;28;20016;-53
2021/01/29 11:50:01;;;;;;;83.55;77.65;;;20.80;99.90;;;;;;5093459;28;20024;-53
2021/01/29 11:52:55;;;;;;;39.92;35.85;;;20.80;99.90;;;;;;5093369;28;20024;-55
2021/01/29 11:55:44;;;;;;;40.42;36.63;;;20.80;99.90;;;;;;5082692;28;20036;-55
2021/01/29 11:58:39;;;;;;;41.55;36.15;;;20.80;99.90;;;;;;5093403;28;20425;-53
2021/01/29 12:01:11;;;;;;;37.85;33.38;;;20.80;99.90;;;;;;5093499;28;20016;-51
2021/01/29 12:03:53;;;;;;;41.67;37.25;;;20.80;99.90;;;;;;5092057;28;20065;-54
2021/01/29 12:06:46;;;;;;;38.85;34.70;;;20.80;99.90;;;;;;5093365;28;20012;-54
2021/01/29 12:09:22;;;;;;;44.95;40.42;;;20.80;99.90;;;;;;5087062;28;20535;-58
2021/01/29 12:12:25;;;;;;;39.60;35.80;;;20.90;99.90;;;;;;5093305;28;20035;-55
2021/01/29 12:15:04;;;;;;;41.17;37.45;;;20.90;99.90;;;;;;5048085;28;20032;-56
2021/01/29 12:17:32;;;;;;;44.60;40.30;;;20.90;99.90;;;;;;5093158;28;20028;-55
2021/01/29 12:20:05;;;;;;;45.63;40.83;;;20.80;99.90;;;;;;5093136;28;20419;-54
2021/01/29 12:22:50;;;;;;;43.13;39.05;;;20.80;99.90;;;;;;5093141;28;20027;-55
2021/01/29 12:25:54;;;;;;;45.92;41.22;;;20.80;99.90;;;;;;5093168;28;20032;-54
2021/01/29 12:28:54;;;;;;;50.65;41.05;;;20.80;99.90;;;;;;5093007;28;20395;-52
2021/01/29 12:31:40;;;;;;;53.35;39.47;;;20.90;99.90;;;;;;5086446;28;20089;-55
2021/01/29 12:34:44;;;;;;;82.75;74.78;;;20.90;99.90;;;;;;5092880;28;20031;-54
2021/01/29 12:37:27;;;;;;;75.65;69.65;;;20.80;99.90;;;;;;5096936;28;20055;-55
2021/01/29 12:40:12;;;;;;;81.70;74.80;;;20.80;99.90;;;;;;5096794;28;20032;-56
2021/01/29 12:42:39;;;;;;;83.88;76.93;;;20.90;99.90;;;;;;5096884;28;20052;-56
2021/01/29 12:45:19;;;;;;;80.45;74.63;;;20.90;99.90;;;;;;5097437;28;20082;-51
2021/01/29 12:48:15;;;;;;;80.47;74.68;;;20.90;99.90;;;;;;5096839;28;20040;-52
2021/01/29 12:51:08;;;;;;;79.32;73.05;;;20.90;99.90;;;;;;5096704;28;20032;-55
2021/01/29 12:53:46;;;;;;;81.13;75.13;;;20.90;99.90;;;;;;5096641;28;20064;-52
2021/01/29 12:56:19;;;;;;;81.30;74.93;;;20.80;99.90;;;;;;5096898;28;20028;-55
2021/01/29 12:58:57;;;;;;;81.22;75.53;;;20.80;99.90;;;;;;5096588;28;20020;-50
2021/01/29 13:01:34;;;;;;;82.22;75.47;;;20.90;99.90;;;;;;5096407;28;20032;-52
2021/01/29 13:04:19;;;;;;;80.45;74.20;;;20.90;99.90;;;;;;5096523;28;20020;-53
2021/01/29 13:07:02;;;;;;;52.28;42.72;;;20.90;99.90;;;;;;5096455;28;20020;-50
2021/01/29 13:09:35;;;;;;;52.85;44.05;;;20.90;99.90;;;;;;5096330;28;20024;-52
2021/01/29 13:12:43;;;;;;;58.72;44.08;;;21.00;99.90;;;;;;5095022;28;20039;-52
2021/01/29 13:15:25;;;;;;;55.65;44.05;;;20.90;99.90;;;;;;5033970;28;20494;-54
2021/01/29 13:18:21;;;;;;;60.50;46.05;;;20.90;99.90;;;;;;5034063;28;20537;-55
2021/01/29 13:20:56;;;;;;;64.75;45.47;;;21.00;99.90;;;;;;5084559;28;20089;-53
2021/01/29 13:23:32;;;;;;;73.30;46.85;;;20.90;99.90;;;;;;5095965;28;20388;-53
2021/01/29 13:26:08;;;;;;;72.75;49.30;;;20.90;99.90;;;;;;5096057;28;20464;-49
2021/01/29 13:28:58;;;;;;;69.93;51.40;;;21.00;99.90;;;;;;5095944;28;20097;-55
2021/01/29 13:31:46;;;;;;;68.20;48.55;;;21.00;99.90;;;;;;5094646;28;20032;-52
2021/01/29 13:34:39;;;;;;;72.88;46.90;;;21.00;99.90;;;;;;5095908;28;20103;-54
2021/01/29 13:37:17;;;;;;;69.22;48.78;;;21.00;99.90;;;;;;5095902;28;20012;-48
2021/01/29 13:39:46;;;;;;;73.07;44.78;;;21.00;99.90;;;;;;5095802;28;20052;-55
2021/01/29 13:42:15;;;;;;;74.80;46.72;;;21.00;99.90;;;;;;5095683;28;20047;-54
2021/01/29 13:44:56;;;;;;;75.85;47.35;;;21.10;99.90;;;;;;5095638;28;20023;-50
2021/01/29 13:47:25;;;;;;;;;;;21.00;99.90;;;;;;5094127;28;20047;-54